Time;durP1;ratioP1;P1;durP2;ratioP2;P2;SDS_P1;SDS_P2;PMS_P1;PMS_P2;Temp;Humidity;BMP_temperature;BMP_pressure;BME280_temperature;BME280_humidity;BME280_pressure;Samples;Min_cycle;Max_cycle;Signal;HPM_P1;HPM_P2
2022/04/10 00:01:37;;;;;;;20.60;3.10;;;5.50;99.90;;;;;;6333991;22;20022;-74
2022/04/10 00:04:07;;;;;;;17.25;3.40;;;5.50;99.90;;;;;;6284380;22;20025;-76
2022/04/10 00:06:34;;;;;;;20.00;3.78;;;5.50;99.90;;;;;;6334899;22;20470;-75
2022/04/10 00:09:01;;;;;;;20.33;3.50;;;5.50;99.90;;;;;;6334793;22;20015;-74
2022/04/10 00:11:27;;;;;;;27.35;4.80;;;5.60;99.90;;;;;;6282861;22;20459;-75
2022/04/10 00:13:53;;;;;;;18.58;4.18;;;5.60;99.90;;;;;;6310426;22;20051;-74
2022/04/10 00:16:22;;;;;;;15.30;3.65;;;5.60;99.90;;;;;;6283904;22;20041;-75
2022/04/10 00:18:49;;;;;;;25.15;4.60;;;5.60;99.90;;;;;;6309895;22;20029;-75
2022/04/10 00:21:20;;;;;;;17.20;3.25;;;5.60;99.90;;;;;;6338555;22;20320;-75
2022/04/10 00:23:55;;;;;;;21.55;3.33;;;5.50;99.90;;;;;;6338875;22;20651;-75
2022/04/10 00:26:26;;;;;;;11.13;2.42;;;5.50;99.90;;;;;;6313008;22;20076;-77
2022/04/10 00:28:53;;;;;;;17.90;3.08;;;5.40;99.90;;;;;;6341402;22;20027;-75
2022/04/10 00:31:19;;;;;;;18.63;2.72;;;5.40;99.90;;;;;;6314942;22;20015;-74
2022/04/10 00:33:51;;;;;;;14.27;3.47;;;5.40;99.90;;;;;;6311073;22;20200;-75
2022/04/10 00:36:27;;;;;;;15.52;4.18;;;5.40;99.90;;;;;;6338230;22;20026;-75
2022/04/10 00:38:54;;;;;;;17.05;4.32;;;5.30;99.90;;;;;;6310281;22;20027;-75
2022/04/10 00:41:38;;;;;;;22.25;4.65;;;5.30;99.90;;;;;;6314190;22;20063;-74
2022/04/10 00:44:13;;;;;;;18.63;3.22;;;5.30;99.90;;;;;;6309825;22;20061;-74
2022/04/10 00:46:39;;;;;;;;;;;5.20;99.90;;;;;;6310828;22;20014;-75
2022/04/10 00:49:06;;;;;;;20.20;3.30;;;5.20;99.90;;;;;;6336035;22;19918;-74
2022/04/10 00:51:42;;;;;;;18.00;2.80;;;5.20;99.90;;;;;;6283987;22;20023;-74
2022/04/10 00:54:19;;;;;;;15.60;3.17;;;5.20;99.90;;;;;;6286385;22;20027;-73
2022/04/10 00:56:46;;;;;;;17.65;3.38;;;5.20;99.90;;;;;;6283202;22;20058;-75
2022/04/10 00:59:28;;;;;;;23.20;3.45;;;5.20;99.90;;;;;;6286893;22;20062;-74
2022/04/10 01:01:55;;;;;;;16.05;3.25;;;5.20;99.90;;;;;;6309735;22;20019;-75
2022/04/10 01:04:21;;;;;;;15.32;4.13;;;5.20;99.90;;;;;;6283259;22;20083;-76
2022/04/10 01:06:53;;;;;;;14.68;2.85;;;5.20;99.90;;;;;;6309647;22;20113;-75
2022/04/10 01:09:22;;;;;;;10.48;2.40;;;5.20;99.90;;;;;;6284408;22;20023;-74
2022/04/10 01:11:48;;;;;;;19.23;2.90;;;5.30;99.90;;;;;;6310076;22;20019;-75
2022/04/10 01:14:15;;;;;;;13.75;2.47;;;5.30;99.90;;;;;;6312749;22;20022;-77
2022/04/10 01:16:42;;;;;;;13.70;2.85;;;5.30;99.90;;;;;;6284909;22;20084;-74
2022/04/10 01:19:09;;;;;;;31.55;3.75;;;5.30;99.90;;;;;;6300580;22;20324;-74
2022/04/10 01:21:42;;;;;;;12.93;2.80;;;5.20;99.90;;;;;;6326112;22;20020;-75
2022/04/10 01:24:11;;;;;;;16.50;2.65;;;5.20;99.90;;;;;;6273618;22;20058;-75
2022/04/10 01:26:38;;;;;;;14.00;2.45;;;5.20;99.90;;;;;;6325742;22;20043;-74
2022/04/10 01:29:08;;;;;;;12.80;2.35;;;5.30;99.90;;;;;;6325854;22;20020;-75
2022/04/10 01:31:44;;;;;;;20.60;3.92;;;5.30;99.90;;;;;;6273546;22;20019;-73
2022/04/10 01:34:15;;;;;;;16.63;3.17;;;5.30;99.90;;;;;;6299096;22;20026;-73
2022/04/10 01:36:43;;;;;;;17.70;2.65;;;5.40;99.90;;;;;;6325538;22;20031;-75
2022/04/10 01:39:15;;;;;;;14.23;2.17;;;5.40;99.90;;;;;;6273121;22;20027;-76
2022/04/10 01:41:46;;;;;;;13.15;1.88;;;5.50;99.90;;;;;;6273121;22;20100;-75
2022/04/10 01:44:12;;;;;;;15.48;3.22;;;5.50;99.90;;;;;;6273285;22;20036;-74
2022/04/10 01:46:39;;;;;;;13.43;3.05;;;5.50;99.90;;;;;;6325696;22;20035;-75
2022/04/10 01:49:06;;;;;;;14.15;2.47;;;5.50;99.90;;;;;;6271724;22;20020;-74
2022/04/10 01:51:33;;;;;;;17.25;2.30;;;5.50;99.90;;;;;;6298890;22;20023;-75
2022/04/10 01:54:04;;;;;;;8.50;1.65;;;5.50;99.90;;;;;;6325260;22;20024;-74
2022/04/10 01:56:30;;;;;;;7.32;2.22;;;5.40;99.90;;;;;;6299069;22;20034;-74
2022/04/10 01:58:59;;;;;;;10.93;1.95;;;5.50;99.90;;;;;;6272910;22;20081;-74
2022/04/10 02:01:25;;;;;;;7.85;1.58;;;5.50;99.90;;;;;;6276718;22;20079;-73
2022/04/10 02:03:51;;;;;;;11.02;1.80;;;5.40;99.90;;;;;;6277936;22;20428;-74
2022/04/10 02:06:17;;;;;;;11.57;2.17;;;5.40;99.90;;;;;;6273191;22;20020;-75
2022/04/10 02:08:43;;;;;;;12.52;2.30;;;5.40;99.90;;;;;;6272806;22;20095;-73
2022/04/10 02:11:14;;;;;;;7.50;2.08;;;5.30;99.90;;;;;;6274941;22;20051;-75
2022/04/10 02:13:40;;;;;;;10.68;1.85;;;5.30;99.90;;;;;;6298516;22;20030;-73
2022/04/10 02:16:10;;;;;;;9.52;2.03;;;5.30;99.90;;;;;;6272881;22;20043;-74
2022/04/10 02:18:36;;;;;;;18.63;3.03;;;5.40;99.90;;;;;;6299036;22;20027;-76
2022/04/10 02:21:03;;;;;;;23.02;2.50;;;5.40;99.90;;;;;;6247220;22;20024;-75
2022/04/10 02:23:37;;;;;;;;;;;5.40;99.90;;;;;;6249427;22;20081;-75
2022/04/10 02:26:05;;;;;;;12.27;2.67;;;5.40;99.90;;;;;;6272280;22;19923;-75
2022/04/10 02:28:31;;;;;;;16.48;2.50;;;5.40;99.90;;;;;;6272839;22;20019;-76
2022/04/10 02:30:57;;;;;;;13.27;2.72;;;5.40;99.90;;;;;;6273084;22;20321;-75
2022/04/10 02:33:26;;;;;;;10.05;1.73;;;5.40;99.90;;;;;;6274639;22;20068;-75
2022/04/10 02:35:52;;;;;;;10.07;1.70;;;5.40;99.90;;;;;;6246606;22;20102;-73
2022/04/10 02:38:19;;;;;;;15.52;2.20;;;5.40;99.90;;;;;;6221955;22;20457;-75
2022/04/10 02:40:44;;;;;;;16.73;2.92;;;5.30;99.90;;;;;;6247209;22;20026;-73
2022/04/10 02:43:14;;;;;;;11.80;1.88;;;5.30;99.90;;;;;;6274229;22;20062;-75
2022/04/10 02:45:41;;;;;;;6.18;1.08;;;5.30;99.90;;;;;;6247388;22;20023;-75
2022/04/10 02:48:10;;;;;;;6.82;1.10;;;5.30;99.90;;;;;;6276657;22;20103;-75
2022/04/10 02:50:41;;;;;;;10.00;1.77;;;5.30;99.90;;;;;;6276079;22;20047;-74
2022/04/10 02:53:07;;;;;;;10.05;1.73;;;5.30;99.90;;;;;;6247440;22;20028;-74
2022/04/10 02:55:34;;;;;;;8.25;1.42;;;5.30;99.90;;;;;;6272700;22;20015;-74
2022/04/10 02:58:00;;;;;;;8.82;1.92;;;5.30;99.90;;;;;;6272526;22;20027;-74
2022/04/10 03:00:26;;;;;;;12.90;1.92;;;5.20;99.90;;;;;;6274840;22;20022;-75
2022/04/10 03:02:52;;;;;;;9.05;1.70;;;5.20;99.90;;;;;;6274323;22;20059;-74
2022/04/10 03:05:17;;;;;;;17.55;4.15;;;5.20;99.90;;;;;;6273407;22;20027;-73
2022/04/10 03:07:43;;;;;;;11.43;2.40;;;5.20;99.90;;;;;;6273878;22;20023;-75
2022/04/10 03:10:09;;;;;;;14.65;2.13;;;5.20;99.90;;;;;;6273376;22;20062;-73
2022/04/10 03:12:35;;;;;;;8.68;2.17;;;5.20;99.90;;;;;;6275985;22;20020;-74
2022/04/10 03:15:01;;;;;;;11.55;1.63;;;5.20;99.90;;;;;;6273940;22;20015;-75
2022/04/10 03:17:27;;;;;;;7.45;1.48;;;5.20;99.90;;;;;;6272374;22;20244;-75
2022/04/10 03:19:53;;;;;;;16.98;2.13;;;5.20;99.90;;;;;;6272260;22;20031;-74
2022/04/10 03:22:19;;;;;;;12.20;3.67;;;5.20;99.90;;;;;;6246871;22;20023;-75
2022/04/10 03:24:45;;;;;;;8.93;2.05;;;5.30;99.90;;;;;;6272343;22;20085;-74
2022/04/10 03:27:11;;;;;;;6.22;2.10;;;5.40;99.90;;;;;;6274049;22;20439;-75
2022/04/10 03:29:37;;;;;;;17.13;2.28;;;5.40;99.90;;;;;;6272382;22;20023;-75
2022/04/10 03:32:04;;;;;;;14.38;2.47;;;5.40;99.90;;;;;;6245703;22;20392;-74
2022/04/10 03:34:35;;;;;;;11.13;1.80;;;5.50;99.90;;;;;;6277698;22;20072;-74
2022/04/10 03:37:04;;;;;;;20.75;3.25;;;5.40;99.90;;;;;;6225160;22;20023;-76
2022/04/10 03:39:31;;;;;;;12.63;1.95;;;5.30;99.90;;;;;;6246902;22;20807;-75
2022/04/10 03:41:57;;;;;;;11.77;2.15;;;5.20;99.90;;;;;;6273029;22;20157;-76
2022/04/10 03:44:23;;;;;;;14.40;3.08;;;5.10;99.90;;;;;;6272236;22;20059;-76
2022/04/10 03:46:49;;;;;;;18.13;3.13;;;5.00;99.90;;;;;;6273789;22;20027;-75
2022/04/10 03:49:15;;;;;;;16.25;3.78;;;4.90;99.90;;;;;;6274291;22;20050;-75
2022/04/10 03:51:41;;;;;;;8.15;1.60;;;4.80;99.90;;;;;;6276382;22;20027;-76
2022/04/10 03:54:06;;;;;;;11.00;2.15;;;4.80;99.90;;;;;;6274257;22;20066;-75
2022/04/10 03:56:33;;;;;;;14.40;2.70;;;4.70;99.90;;;;;;6274076;22;20102;-76
2022/04/10 03:58:59;;;;;;;12.43;2.95;;;4.70;99.90;;;;;;6248293;22;20058;-75
2022/04/10 04:01:24;;;;;;;13.68;2.05;;;4.60;99.90;;;;;;6274040;22;20019;-74
2022/04/10 04:03:52;;;;;;;17.58;2.28;;;4.60;99.90;;;;;;6274124;22;20030;-75
2022/04/10 04:06:18;;;;;;;18.48;1.95;;;4.60;99.90;;;;;;6273534;22;20098;-75
2022/04/10 04:08:44;;;;;;;18.48;1.98;;;4.60;99.90;;;;;;6273962;22;20055;-75
2022/04/10 04:11:09;;;;;;;15.45;2.33;;;4.60;99.90;;;;;;6274258;22;20081;-74
2022/04/10 04:13:38;;;;;;;9.88;2.00;;;4.60;99.90;;;;;;6274139;22;20106;-75
2022/04/10 04:16:08;;;;;;;15.68;2.25;;;4.60;99.90;;;;;;6274508;22;20024;-76
2022/04/10 04:18:38;;;;;;;11.45;2.38;;;4.60;99.90;;;;;;6229548;22;20050;-73
2022/04/10 04:21:04;;;;;;;13.02;2.10;;;4.60;99.90;;;;;;6250928;22;20099;-76
2022/04/10 04:23:34;;;;;;;12.02;2.38;;;4.60;99.90;;;;;;6278595;22;20031;-75
2022/04/10 04:26:00;;;;;;;8.07;1.77;;;4.70;99.90;;;;;;6279655;22;20019;-75
2022/04/10 04:28:32;;;;;;;12.50;2.53;;;4.70;99.90;;;;;;6251240;22;20026;-75
2022/04/10 04:30:58;;;;;;;10.45;1.75;;;4.60;99.90;;;;;;6274669;22;20062;-75
2022/04/10 04:33:23;;;;;;;14.75;3.80;;;4.70;99.90;;;;;;6275704;22;20027;-75
2022/04/10 04:35:49;;;;;;;10.80;2.10;;;4.70;99.90;;;;;;6275150;22;20077;-76
2022/04/10 04:38:15;;;;;;;12.98;2.20;;;4.70;99.90;;;;;;6274074;22;20038;-75
2022/04/10 04:40:41;;;;;;;11.05;2.10;;;4.70;99.90;;;;;;6248140;22;20093;-76
2022/04/10 04:43:09;;;;;;;10.95;2.20;;;4.70;99.90;;;;;;6276066;22;20102;-75
2022/04/10 04:45:35;;;;;;;16.00;2.25;;;4.60;99.90;;;;;;6274434;22;20070;-76
2022/04/10 04:48:01;;;;;;;9.40;2.10;;;4.70;99.90;;;;;;6273922;22;20024;-75
2022/04/10 04:50:27;;;;;;;10.95;1.58;;;4.70;99.90;;;;;;6275363;22;20071;-74
2022/04/10 04:52:53;;;;;;;9.20;1.80;;;4.70;99.90;;;;;;6275786;22;20028;-74
2022/04/10 04:55:19;;;;;;;16.73;2.22;;;4.70;99.90;;;;;;6274665;22;20019;-74
2022/04/10 04:57:44;;;;;;;12.93;2.53;;;4.70;99.90;;;;;;6273109;22;20024;-75
2022/04/10 05:00:11;;;;;;;13.90;3.55;;;4.70;99.90;;;;;;6273651;22;20031;-74
2022/04/10 05:02:37;;;;;;;17.20;2.20;;;4.80;99.90;;;;;;6273502;22;20363;-75
2022/04/10 05:05:03;;;;;;;15.85;2.22;;;4.80;99.90;;;;;;6273684;22;20038;-76
2022/04/10 05:07:29;;;;;;;12.80;2.63;;;4.90;99.90;;;;;;6273375;22;20016;-76
2022/04/10 05:09:55;;;;;;;13.50;2.40;;;4.80;99.90;;;;;;6273805;22;20027;-75
2022/04/10 05:12:23;;;;;;;13.50;2.38;;;4.80;99.90;;;;;;6278331;22;20016;-74
2022/04/10 05:14:52;;;;;;;15.55;2.88;;;4.70;99.90;;;;;;6279361;22;20027;-75
2022/04/10 05:17:18;;;;;;;11.60;2.47;;;4.70;99.90;;;;;;6253506;22;20077;-73
2022/04/10 05:19:44;;;;;;;16.52;2.45;;;4.70;99.90;;;;;;6271908;22;20024;-75
2022/04/10 05:22:16;;;;;;;13.93;3.42;;;4.60;99.90;;;;;;6247366;22;20020;-74
2022/04/10 05:24:42;;;;;;;13.45;2.40;;;4.60;99.90;;;;;;6273535;22;20038;-75
2022/04/10 05:27:11;;;;;;;12.55;2.00;;;4.60;99.90;;;;;;6248676;22;20050;-75
2022/04/10 05:29:37;;;;;;;14.65;2.45;;;4.60;99.90;;;;;;6275388;22;20027;-75
2022/04/10 05:32:05;;;;;;;12.68;2.65;;;4.60;99.90;;;;;;6274937;22;20106;-75
2022/04/10 05:34:34;;;;;;;10.95;2.03;;;4.60;99.90;;;;;;6247317;22;20023;-75
2022/04/10 05:37:04;;;;;;;10.95;2.17;;;4.60;99.90;;;;;;6197724;22;20027;-75
2022/04/10 05:39:34;;;;;;;14.02;2.20;;;4.60;99.90;;;;;;6273593;22;20024;-75
2022/04/10 05:42:03;;;;;;;11.65;2.75;;;4.60;99.90;;;;;;6273848;22;20104;-74
2022/04/10 05:44:29;;;;;;;18.60;3.83;;;4.60;99.90;;;;;;6247388;22;20059;-75
2022/04/10 05:46:55;;;;;;;13.40;2.42;;;4.50;99.90;;;;;;6247439;22;20073;-74
2022/04/10 05:49:22;;;;;;;18.40;3.58;;;4.50;99.90;;;;;;6221409;22;20055;-76
2022/04/10 05:51:50;;;;;;;17.17;2.58;;;4.50;99.90;;;;;;6274957;22;20023;-76
2022/04/10 05:54:16;;;;;;;12.05;2.15;;;4.50;99.90;;;;;;6273008;22;20103;-75
2022/04/10 05:56:42;;;;;;;12.63;2.10;;;4.50;99.90;;;;;;6273225;22;20421;-74
2022/04/10 05:59:08;;;;;;;15.70;2.65;;;4.40;99.90;;;;;;6275125;22;20142;-74
2022/04/10 06:01:34;;;;;;;15.35;2.78;;;4.40;99.90;;;;;;6222189;22;20098;-74
2022/04/10 06:03:59;;;;;;;8.90;1.85;;;4.40;99.90;;;;;;6273284;22;20081;-74
2022/04/10 06:06:28;;;;;;;17.63;2.28;;;4.50;99.90;;;;;;6276104;22;20164;-75
2022/04/10 06:08:58;;;;;;;16.15;4.15;;;4.50;99.90;;;;;;6277088;22;20045;-75
2022/04/10 06:11:55;;;;;;;10.15;2.58;;;4.60;99.90;;;;;;6276762;22;20085;-76
2022/04/10 06:14:33;;;;;;;18.08;2.85;;;4.70;99.90;;;;;;6271850;22;20104;-76
2022/04/10 06:16:59;;;;;;;12.27;2.53;;;4.80;99.90;;;;;;6247521;22;20020;-75
2022/04/10 06:19:28;;;;;;;15.05;2.55;;;4.90;99.90;;;;;;6250634;22;20024;-75
2022/04/10 06:21:54;;;;;;;18.83;2.40;;;5.10;99.90;;;;;;6273025;22;20456;-75
2022/04/10 06:24:21;;;;;;;17.25;2.95;;;5.20;99.90;;;;;;6247824;22;20030;-75
2022/04/10 06:26:49;;;;;;;17.35;2.55;;;5.30;99.90;;;;;;6247338;22;20360;-76
2022/04/10 06:29:16;;;;;;;15.98;2.80;;;5.50;99.90;;;;;;6222387;22;20057;-76
2022/04/10 06:31:42;;;;;;;17.77;3.08;;;5.60;99.90;;;;;;6247261;22;20024;-75
2022/04/10 06:34:08;;;;;;;16.73;2.70;;;5.70;99.90;;;;;;6274624;22;20019;-74
2022/04/10 06:36:34;;;;;;;13.88;2.65;;;5.80;99.90;;;;;;6271970;22;20016;-76
2022/04/10 06:39:00;;;;;;;19.08;2.50;;;5.80;99.90;;;;;;6247673;22;20759;-75
2022/04/10 06:41:26;;;;;;;11.77;1.80;;;5.90;99.90;;;;;;6272625;22;20020;-75
2022/04/10 06:43:52;;;;;;;10.32;2.35;;;5.80;99.90;;;;;;6271325;22;20027;-75
2022/04/10 06:46:19;;;;;;;6.40;1.15;;;5.80;99.90;;;;;;6272707;22;20023;-76
2022/04/10 06:48:48;;;;;;;13.13;1.77;;;5.90;99.90;;;;;;6246840;22;20340;-75
2022/04/10 06:51:16;;;;;;;9.40;1.98;;;6.00;99.90;;;;;;6247061;22;20470;-76
2022/04/10 06:53:44;;;;;;;11.32;1.90;;;6.10;99.90;;;;;;6223851;22;20027;-75
2022/04/10 06:56:10;;;;;;;9.23;1.45;;;6.10;99.90;;;;;;6275825;22;20031;-75
2022/04/10 06:58:36;;;;;;;8.15;1.20;;;6.20;99.90;;;;;;6278866;22;20115;-76
2022/04/10 07:01:01;;;;;;;10.05;1.40;;;6.30;99.90;;;;;;6279572;22;20032;-75
2022/04/10 07:03:28;;;;;;;11.35;1.52;;;6.40;99.90;;;;;;6272483;22;20038;-75
2022/04/10 07:05:54;;;;;;;9.43;2.00;;;6.50;99.90;;;;;;6247149;22;20400;-76
2022/04/10 07:08:21;;;;;;;10.40;1.90;;;6.60;99.90;;;;;;6272767;22;20031;-76
2022/04/10 07:10:47;;;;;;;16.58;2.15;;;6.60;99.90;;;;;;6274793;22;20351;-76
2022/04/10 07:13:19;;;;;;;6.00;1.45;;;6.70;99.90;;;;;;6273700;22;20034;-76
2022/04/10 07:15:50;;;;;;;8.77;1.63;;;6.80;99.90;;;;;;6248555;22;20012;-75
2022/04/10 07:18:17;;;;;;;14.75;1.90;;;6.90;99.90;;;;;;6287152;22;20084;-76
2022/04/10 07:20:43;;;;;;;8.85;2.20;;;7.00;99.90;;;;;;6308323;22;20060;-76
2022/04/10 07:25:55;;;;;;;15.73;2.53;;;7.20;99.90;;;;;;6336267;22;20029;-76
2022/04/10 07:28:21;;;;;;;20.88;2.90;;;7.30;99.90;;;;;;6334421;22;20153;-76
2022/04/10 07:30:49;;;;;;;13.85;2.38;;;7.40;99.90;;;;;;6308377;22;20343;-75
2022/04/10 07:33:15;;;;;;;13.45;2.30;;;7.50;99.90;;;;;;6282751;22;20014;-76
2022/04/10 07:35:44;;;;;;;10.13;2.45;;;7.60;99.90;;;;;;6336550;22;20328;-75
2022/04/10 07:38:11;;;;;;;13.80;2.80;;;7.70;99.90;;;;;;6283417;22;20010;-76
2022/04/10 07:40:40;;;;;;;11.88;1.77;;;7.80;99.90;;;;;;6310602;22;20050;-75
2022/04/10 07:43:11;;;;;;;14.48;2.72;;;7.80;99.90;;;;;;6342535;22;20026;-77
2022/04/10 07:48:48;;;;;;;11.37;1.73;;;7.60;99.90;;;;;;6309801;22;20084;-75
2022/04/10 07:51:14;;;;;;;11.48;2.47;;;7.80;99.90;;;;;;6309289;22;20244;-75
2022/04/10 07:53:40;;;;;;;9.80;1.88;;;8.00;99.90;;;;;;6336302;22;20358;-75
2022/04/10 07:56:09;;;;;;;11.27;2.08;;;8.20;99.90;;;;;;6308885;22;20030;-74
2022/04/10 07:58:40;;;;;;;11.95;1.85;;;8.10;99.90;;;;;;6306695;22;20034;-75
2022/04/10 08:01:17;;;;;;;13.43;1.77;;;8.00;99.90;;;;;;6309058;22;20018;-75
2022/04/10 08:03:51;;;;;;;8.70;1.65;;;7.90;99.90;;;;;;6284728;22;20026;-76
2022/04/10 08:06:20;;;;;;;9.90;2.50;;;7.90;99.90;;;;;;6308357;22;20019;-76
2022/04/10 08:08:49;;;;;;;14.95;2.13;;;8.20;99.90;;;;;;6303653;22;20022;-77
2022/04/10 08:11:16;;;;;;;15.02;2.50;;;8.20;99.90;;;;;;6308166;22;20061;-77
2022/04/10 08:13:43;;;;;;;10.00;2.38;;;8.20;99.90;;;;;;6257035;22;20454;-75
2022/04/10 08:16:10;;;;;;;12.77;2.58;;;8.30;99.90;;;;;;6307439;22;20030;-75
2022/04/10 08:18:37;;;;;;;17.30;4.05;;;8.50;99.90;;;;;;6330449;22;20054;-75
2022/04/10 08:21:04;;;;;;;15.23;4.05;;;8.80;99.90;;;;;;6307703;22;20023;-76
2022/04/10 08:23:30;;;;;;;16.85;1.98;;;8.80;99.90;;;;;;6362432;22;20023;-77
2022/04/10 08:25:56;;;;;;;15.35;2.70;;;8.90;99.90;;;;;;6341575;22;20019;-78
2022/04/10 08:28:22;;;;;;;10.23;1.88;;;8.90;99.90;;;;;;6313745;22;20041;-77
2022/04/10 08:30:52;;;;;;;6.88;1.30;;;9.00;99.90;;;;;;6360200;22;20450;-78
2022/04/10 08:33:22;;;;;;;8.65;1.70;;;9.10;99.90;;;;;;6308611;22;20150;-76
2022/04/10 08:35:58;;;;;;;7.47;1.33;;;9.10;99.90;;;;;;6284321;22;20513;-76
2022/04/10 08:38:24;;;;;;;8.55;1.63;;;9.00;99.90;;;;;;6309290;22;20034;-76
2022/04/10 08:40:56;;;;;;;17.95;3.30;;;9.10;99.90;;;;;;6338093;22;20026;-78
2022/04/10 08:43:22;;;;;;;10.45;2.13;;;9.10;99.90;;;;;;6310118;22;20019;-77
2022/04/10 08:45:48;;;;;;;13.00;1.80;;;9.10;99.90;;;;;;6283594;22;20029;-76
2022/04/10 08:48:14;;;;;;;11.68;1.55;;;9.20;99.90;;;;;;6283975;22;20026;-76
2022/04/10 08:50:41;;;;;;;6.47;1.60;;;9.30;99.90;;;;;;6310371;22;20029;-77
2022/04/10 08:53:07;;;;;;;11.27;3.38;;;9.50;99.90;;;;;;6309748;22;20019;-77
2022/04/10 08:55:33;;;;;;;7.03;1.77;;;9.50;99.90;;;;;;6309166;22;20481;-76
2022/04/10 08:58:02;;;;;;;11.43;1.65;;;9.60;99.90;;;;;;6309553;22;20058;-76
2022/04/10 09:00:28;;;;;;;8.85;2.15;;;9.70;99.90;;;;;;6337660;22;20099;-78
2022/04/10 09:02:54;;;;;;;11.23;2.42;;;9.70;99.90;;;;;;6309855;22;20072;-76
2022/04/10 09:05:22;;;;;;;14.15;2.50;;;9.90;99.90;;;;;;6309237;22;20023;-76
2022/04/10 09:08:11;;;;;;;10.32;2.60;;;10.30;99.90;;;;;;6311034;22;20018;-78
2022/04/10 09:11:05;;;;;;;7.78;1.83;;;10.20;99.90;;;;;;6312520;22;20042;-76
2022/04/10 09:13:33;;;;;;;15.02;2.05;;;9.80;99.90;;;;;;6315040;22;20023;-75
2022/04/10 09:16:31;;;;;;;12.20;1.73;;;9.50;99.90;;;;;;6319589;22;20099;-77
2022/04/10 09:19:26;;;;;;;17.30;2.65;;;9.30;99.90;;;;;;6321519;22;20026;-77
2022/04/10 09:21:53;;;;;;;15.25;1.73;;;9.50;99.90;;;;;;6260539;22;20042;-76
2022/04/10 09:24:20;;;;;;;10.15;1.92;;;9.80;99.90;;;;;;6336743;22;20451;-76
2022/04/10 09:26:54;;;;;;;11.50;1.98;;;10.00;99.90;;;;;;6307397;22;20019;-78
2022/04/10 09:29:23;;;;;;;13.18;1.90;;;10.10;99.90;;;;;;6246921;22;20086;-77
2022/04/10 09:31:51;;;;;;;7.93;1.55;;;10.30;99.90;;;;;;6246862;22;20020;-77
2022/04/10 09:34:20;;;;;;;10.10;1.63;;;10.30;99.90;;;;;;6221546;22;20459;-78
2022/04/10 09:37:00;;;;;;;9.60;2.25;;;10.40;99.90;;;;;;6247358;22;20020;-76
2022/04/10 09:39:35;;;;;;;9.05;3.17;;;10.60;99.90;;;;;;6247853;22;20020;-78
2022/04/10 09:42:10;;;;;;;12.57;1.98;;;10.70;99.90;;;;;;6222174;22;20035;-78
2022/04/10 09:44:39;;;;;;;6.55;1.35;;;10.70;99.90;;;;;;6246316;22;20020;-76
2022/04/10 09:47:12;;;;;;;8.48;1.55;;;10.80;99.90;;;;;;6272407;22;20027;-77
2022/04/10 09:49:40;;;;;;;12.10;2.45;;;10.90;99.90;;;;;;6272845;22;20033;-76
2022/04/10 09:52:14;;;;;;;9.93;1.65;;;10.90;99.80;;;;;;6272308;22;20035;-77
2022/04/10 09:54:40;;;;;;;9.60;1.33;;;10.80;98.50;;;;;;6220992;22;20140;-78
2022/04/10 09:57:16;;;;;;;10.43;2.03;;;10.90;99.80;;;;;;6271832;22;20023;-77
2022/04/10 09:59:47;;;;;;;7.45;1.50;;;11.10;99.80;;;;;;6287191;22;20027;-77
2022/04/10 10:02:30;;;;;;;11.43;2.80;;;11.10;99.20;;;;;;6303460;22;20023;-77
2022/04/10 10:05:19;;;;;;;12.32;1.50;;;11.30;99.00;;;;;;6215684;23;20098;-78
2022/04/10 10:07:48;;;;;;;9.65;1.90;;;11.40;98.60;;;;;;6216094;23;20051;-78
2022/04/10 10:10:18;;;;;;;13.48;2.00;;;11.70;98.80;;;;;;6240955;23;20039;-78
2022/04/10 10:12:49;;;;;;;11.65;1.90;;;11.60;98.20;;;;;;6190349;23;20031;-77
2022/04/10 10:15:16;;;;;;;13.05;2.53;;;11.50;98.40;;;;;;6191040;23;20063;-78
2022/04/10 10:17:45;;;;;;;10.85;2.10;;;11.60;98.40;;;;;;6215403;23;20024;-77
2022/04/10 10:20:15;;;;;;;10.38;1.88;;;11.50;98.10;;;;;;6187005;23;20020;-76
2022/04/10 10:23:03;;;;;;;10.18;2.80;;;11.50;98.10;;;;;;6188995;23;20035;-77
2022/04/10 10:25:59;;;;;;;10.68;1.83;;;11.80;97.70;;;;;;6161354;23;20016;-77
2022/04/10 10:29:03;;;;;;;10.25;2.15;;;11.90;96.70;;;;;;6210434;23;20060;-76
2022/04/10 10:31:48;;;;;;;16.40;2.13;;;12.20;96.50;;;;;;6210245;23;20429;-77
2022/04/10 10:34:15;;;;;;;7.05;1.73;;;12.20;96.10;;;;;;6210583;23;20419;-76
2022/04/10 10:36:40;;;;;;;11.05;1.67;;;12.20;96.30;;;;;;6251186;22;20352;-78
2022/04/10 10:39:09;;;;;;;10.68;1.80;;;12.20;95.70;;;;;;6248979;22;20041;-77
2022/04/10 10:41:53;;;;;;;10.98;1.80;;;12.10;96.00;;;;;;6247617;22;20026;-78
2022/04/10 10:44:35;;;;;;;10.75;2.33;;;12.50;95.90;;;;;;6273814;22;20055;-79
2022/04/10 10:47:05;;;;;;;10.77;1.42;;;12.80;96.20;;;;;;6249148;22;20024;-77
2022/04/10 10:49:49;;;;;;;10.40;1.67;;;12.90;94.80;;;;;;6276327;22;20031;-78
2022/04/10 10:52:17;;;;;;;6.78;1.60;;;13.10;95.20;;;;;;6277832;22;20062;-78
2022/04/10 10:54:59;;;;;;;8.07;1.77;;;13.10;95.00;;;;;;6277822;22;20351;-78
2022/04/10 10:57:42;;;;;;;8.43;1.45;;;12.90;93.20;;;;;;6277340;22;20023;-79
2022/04/10 11:00:20;;;;;;;9.43;1.50;;;12.80;93.00;;;;;;6274507;22;20093;-78
2022/04/10 11:02:54;;;;;;;13.48;1.58;;;12.60;94.50;;;;;;6273816;22;20164;-79
2022/04/10 11:05:30;;;;;;;9.23;1.70;;;12.70;95.50;;;;;;6274513;22;20047;-79
2022/04/10 11:08:17;;;;;;;8.73;2.33;;;12.90;94.30;;;;;;6273488;22;20019;-79
2022/04/10 11:11:03;;;;;;;8.70;1.75;;;12.90;94.00;;;;;;6272534;22;20019;-79
2022/04/10 11:13:44;;;;;;;10.60;2.00;;;13.10;94.40;;;;;;6273493;22;20239;-79
2022/04/10 11:16:12;;;;;;;5.20;1.80;;;13.20;95.10;;;;;;6272453;22;20078;-78
2022/04/10 11:18:43;;;;;;;12.05;2.13;;;13.20;93.90;;;;;;6296199;22;20064;-79
2022/04/10 11:21:13;;;;;;;10.75;1.60;;;13.10;94.30;;;;;;6336589;22;20148;-78
2022/04/10 11:23:45;;;;;;;6.75;1.42;;;12.90;94.10;;;;;;6336461;22;20109;-79
2022/04/10 11:26:43;;;;;;;10.68;1.92;;;13.10;93.90;;;;;;6307898;22;20093;-78
2022/04/10 11:29:10;;;;;;;9.43;1.83;;;13.60;92.30;;;;;;6281946;22;20019;-78
2022/04/10 11:31:42;;;;;;;8.60;1.48;;;13.70;93.20;;;;;;6336355;22;20103;-79
2022/04/10 11:34:30;;;;;;;6.68;1.70;;;13.60;91.80;;;;;;6360795;22;20054;-78
2022/04/10 11:37:00;;;;;;;7.63;1.20;;;13.80;91.40;;;;;;6336119;22;20451;-78
2022/04/10 11:39:36;;;;;;;7.03;1.40;;;13.60;91.50;;;;;;6309982;22;20018;-78
2022/04/10 11:42:13;;;;;;;6.22;1.27;;;13.70;91.10;;;;;;6309395;22;20019;-79
2022/04/10 11:44:42;;;;;;;8.15;1.20;;;13.70;90.50;;;;;;6336466;22;20027;-79
2022/04/10 11:47:10;;;;;;;8.15;1.23;;;13.70;90.50;;;;;;6336405;22;20439;-78
2022/04/10 11:49:51;;;;;;;5.03;1.58;;;13.90;91.70;;;;;;6336337;22;20058;-79
2022/04/10 11:52:19;;;;;;;12.13;1.27;;;13.90;87.20;;;;;;6309627;22;20018;-78
2022/04/10 11:54:45;;;;;;;6.78;1.00;;;14.00;85.60;;;;;;6283454;22;20455;-78
2022/04/10 11:57:11;;;;;;;4.68;1.23;;;14.10;89.80;;;;;;6308839;22;20054;-79
2022/04/10 11:59:39;;;;;;;8.73;1.40;;;14.10;88.60;;;;;;6308579;22;20124;-80
2022/04/10 12:02:09;;;;;;;5.68;1.35;;;14.10;87.90;;;;;;6308754;22;20019;-78
2022/04/10 12:04:36;;;;;;;7.88;1.30;;;14.20;89.80;;;;;;6283963;22;20087;-78
2022/04/10 12:07:19;;;;;;;9.30;2.10;;;14.40;89.00;;;;;;6336815;22;20023;-78
2022/04/10 12:09:49;;;;;;;6.78;1.40;;;14.30;85.60;;;;;;6310809;22;20022;-78
2022/04/10 12:12:45;;;;;;;7.35;1.55;;;13.90;86.20;;;;;;6309793;22;20015;-78
2022/04/10 12:15:19;;;;;;;6.25;1.20;;;13.90;90.00;;;;;;6306104;22;20023;-78
2022/04/10 12:17:46;;;;;;;10.02;1.17;;;14.30;89.20;;;;;;6339107;22;20062;-79
2022/04/10 12:20:14;;;;;;;7.22;1.30;;;14.60;87.80;;;;;;6253109;22;20515;-80
2022/04/10 12:22:42;;;;;;;8.82;2.13;;;14.90;84.70;;;;;;6275336;22;20329;-79
2022/04/10 12:25:11;;;;;;;7.05;1.00;;;14.90;86.70;;;;;;6225492;22;20042;-78
2022/04/10 12:27:38;;;;;;;6.00;1.58;;;15.10;80.00;;;;;;6276868;22;20023;-78
2022/04/10 12:30:11;;;;;;;10.88;1.30;;;15.20;80.00;;;;;;6274573;22;20034;-78
2022/04/10 12:33:01;;;;;;;7.43;1.73;;;15.40;80.20;;;;;;6253494;22;20030;-78
2022/04/10 12:35:51;;;;;;;6.35;1.40;;;15.60;71.80;;;;;;6223868;22;20026;-79
2022/04/10 12:38:17;;;;;;;4.85;1.20;;;15.70;68.30;;;;;;6273384;22;20020;-78
2022/04/10 12:40:47;;;;;;;8.10;1.25;;;15.40;74.60;;;;;;6223543;22;20081;-78
2022/04/10 12:43:13;;;;;;;6.88;1.23;;;15.40;73.60;;;;;;6273451;22;20027;-79
2022/04/10 12:45:44;;;;;;;6.10;1.20;;;15.40;79.30;;;;;;6274486;22;20020;-78
2022/04/10 12:48:24;;;;;;;5.50;1.23;;;15.90;76.70;;;;;;6274449;22;20031;-78
2022/04/10 12:51:10;;;;;;;8.75;1.42;;;15.50;77.90;;;;;;6274283;22;20027;-79
2022/04/10 12:53:40;;;;;;;7.07;1.50;;;15.60;63.90;;;;;;6274897;22;20539;-78
2022/04/10 12:56:20;;;;;;;7.18;1.02;;;15.60;66.60;;;;;;6249477;22;20015;-78
2022/04/10 12:58:47;;;;;;;6.90;1.27;;;15.80;69.80;;;;;;6275606;22;20032;-78
2022/04/10 13:01:50;;;;;;;7.43;1.35;;;16.00;68.30;;;;;;6275935;22;20019;-77
2022/04/10 13:04:32;;;;;;;8.55;1.85;;;15.60;72.90;;;;;;6234812;22;20034;-80
2022/04/10 13:07:02;;;;;;;7.55;1.30;;;15.60;67.60;;;;;;6280314;22;20023;-77
2022/04/10 13:09:29;;;;;;;7.53;1.38;;;14.90;78.30;;;;;;6284328;22;20024;-78